Time;durP1;ratioP1;P1;durP2;ratioP2;P2;SDS_P1;SDS_P2;PMS_P1;PMS_P2;Temp;Humidity;BMP_temperature;BMP_pressure;BME280_temperature;BME280_humidity;BME280_pressure;Samples;Min_cycle;Max_cycle;Signal;HPM_P1;HPM_P2
2021/04/08 00:01:36;;;;;;;13.37;1.03;;;;;;;;;;4984341;28;20290;-69
2021/04/08 00:04:01;;;;;;;6.13;0.83;;;;;;;;;;4974301;28;20238;-69
2021/04/08 00:06:27;;;;;;;6.10;0.87;;;;;;;;;;4982456;28;20202;-69
2021/04/08 00:08:52;;;;;;;4.40;0.67;;;;;;;;;;4984171;28;20194;-69
2021/04/08 00:11:17;;;;;;;7.73;0.77;;;;;;;;;;4989717;28;20180;-69
2021/04/08 00:13:43;;;;;;;8.30;1.03;;;;;;;;;;4985835;28;20253;-69
2021/04/08 00:16:08;;;;;;;7.17;1.00;;;;;;;;;;4999422;28;20697;-68
2021/04/08 00:18:33;;;;;;;9.03;1.07;;;;;;;;;;4989972;28;20537;-68
2021/04/08 00:21:01;;;;;;;6.53;0.70;;;;;;;;;;4984983;28;20215;-68
2021/04/08 00:23:27;;;;;;;5.93;1.10;;;;;;;;;;5005635;28;20555;-68
2021/04/08 00:25:52;;;;;;;6.60;0.90;;;;;;;;;;4987224;28;20183;-68
2021/04/08 00:28:17;;;;;;;7.13;1.00;;;;;;;;;;4991633;28;20306;-69
2021/04/08 00:30:43;;;;;;;5.47;0.73;;;;;;;;;;4984306;28;20559;-69
2021/04/08 00:33:11;;;;;;;4.37;0.90;;;;;;;;;;5005398;28;20200;-69
2021/04/08 00:35:36;;;;;;;8.60;1.10;;;;;;;;;;4990376;28;20192;-68
2021/04/08 00:38:02;;;;;;;11.00;1.33;;;;;;;;;;4994049;28;20701;-68
2021/04/08 00:40:27;;;;;;;8.67;1.30;;;;;;;;;;4983078;28;20709;-68
2021/04/08 00:42:53;;;;;;;8.10;1.30;;;;;;;;;;4992169;28;20280;-68
2021/04/08 00:45:18;;;;;;;6.33;1.27;;;;;;;;;;4988476;28;20769;-68
2021/04/08 00:47:43;;;;;;;7.67;1.20;;;;;;;;;;4992498;28;20191;-68
2021/04/08 00:50:09;;;;;;;7.73;0.80;;;;;;;;;;4986203;28;20191;-69
2021/04/08 00:52:35;;;;;;;7.80;1.00;;;;;;;;;;4986241;28;20282;-68
2021/04/08 00:55:01;;;;;;;10.60;1.33;;;;;;;;;;4987319;28;20341;-68
2021/04/08 00:57:26;;;;;;;6.40;0.80;;;;;;;;;;4986148;28;20649;-68
2021/04/08 00:59:53;;;;;;;9.60;1.00;;;;;;;;;;4989490;28;20183;-68
2021/04/08 01:02:18;;;;;;;6.73;0.97;;;;;;;;;;4982121;28;20710;-69
2021/04/08 01:04:43;;;;;;;6.30;1.20;;;;;;;;;;4991122;28;20199;-69
2021/04/08 01:07:09;;;;;;;9.97;1.20;;;;;;;;;;4978126;28;20195;-68
2021/04/08 01:09:34;;;;;;;9.77;1.30;;;;;;;;;;4993626;28;20172;-68
2021/04/08 01:11:59;;;;;;;10.53;1.37;;;;;;;;;;4981783;28;20183;-69
2021/04/08 01:14:25;;;;;;;4.53;0.83;;;;;;;;;;4992618;28;20183;-69
2021/04/08 01:17:14;;;;;;;8.43;1.77;;;;;;;;;;4992046;28;20189;-68
2021/04/08 01:20:07;;;;;;;7.37;1.47;;;;;;;;;;4992353;28;20273;-68
2021/04/08 01:22:53;;;;;;;4.77;1.20;;;;;;;;;;4988110;28;20751;-68
2021/04/08 01:25:59;;;;;;;6.90;1.07;;;;;;;;;;4993089;28;20526;-68
2021/04/08 01:28:36;;;;;;;8.73;1.23;;;;;;;;;;4982594;28;20195;-69
2021/04/08 01:31:04;;;;;;;6.27;1.10;;;;;;;;;;5000833;28;20306;-69
2021/04/08 01:33:41;;;;;;;7.40;1.10;;;;;;;;;;4984124;28;20191;-69
2021/04/08 01:36:09;;;;;;;6.03;1.03;;;;;;;;;;4995992;28;20199;-69
2021/04/08 01:38:48;;;;;;;5.00;1.00;;;;;;;;;;4983025;28;20211;-69
2021/04/08 01:41:17;;;;;;;6.63;1.00;;;;;;;;;;4994331;28;20223;-69
2021/04/08 01:43:45;;;;;;;9.40;1.57;;;;;;;;;;4986800;28;20191;-69
2021/04/08 01:46:12;;;;;;;5.37;1.10;;;;;;;;;;4991769;28;20198;-69
2021/04/08 01:48:41;;;;;;;8.57;1.40;;;;;;;;;;4988130;28;20192;-69
2021/04/08 01:51:07;;;;;;;6.43;1.27;;;;;;;;;;4996740;28;20182;-69
2021/04/08 01:53:38;;;;;;;8.73;2.10;;;;;;;;;;4980465;28;20179;-69
2021/04/08 01:56:04;;;;;;;9.43;1.33;;;;;;;;;;4993575;28;20199;-69
2021/04/08 01:58:30;;;;;;;9.27;1.53;;;;;;;;;;4988187;28;20203;-69
2021/04/08 02:00:57;;;;;;;6.80;1.00;;;;;;;;;;4997677;28;20546;-69
2021/04/08 02:03:22;;;;;;;7.83;1.33;;;;;;;;;;4994106;28;20683;-69
2021/04/08 02:05:49;;;;;;;7.30;1.10;;;;;;;;;;4981750;28;20183;-69
2021/04/08 02:08:15;;;;;;;10.43;1.20;;;;;;;;;;4993203;28;20218;-69
2021/04/08 02:10:41;;;;;;;8.23;1.03;;;;;;;;;;4989207;28;20184;-68
2021/04/08 02:13:11;;;;;;;7.70;1.40;;;;;;;;;;4993268;28;20190;-68
2021/04/08 02:15:37;;;;;;;10.97;1.93;;;;;;;;;;4986425;28;20187;-69
2021/04/08 02:18:04;;;;;;;6.43;1.20;;;;;;;;;;4995673;28;20537;-69
2021/04/08 02:20:32;;;;;;;11.20;1.43;;;;;;;;;;4986886;28;20274;-69
2021/04/08 02:23:02;;;;;;;5.40;1.10;;;;;;;;;;4993595;28;20250;-69
2021/04/08 02:25:30;;;;;;;6.93;1.50;;;;;;;;;;4981760;28;20561;-69
2021/04/08 02:27:56;;;;;;;10.30;1.53;;;;;;;;;;4994052;28;20196;-69
2021/04/08 02:30:24;;;;;;;9.67;1.47;;;;;;;;;;4990623;28;20252;-69
2021/04/08 02:32:50;;;;;;;9.00;1.50;;;;;;;;;;4994312;28;20321;-69
2021/04/08 02:35:16;;;;;;;9.43;1.67;;;;;;;;;;5001304;28;20182;-68
2021/04/08 02:37:43;;;;;;;12.33;1.60;;;;;;;;;;4983360;28;20204;-69
2021/04/08 02:40:11;;;;;;;7.50;2.00;;;;;;;;;;5004812;28;20262;-68
2021/04/08 02:42:36;;;;;;;7.43;1.50;;;;;;;;;;4984835;28;20260;-68
2021/04/08 02:45:04;;;;;;;11.93;1.70;;;;;;;;;;4998442;28;20183;-68
2021/04/08 02:47:29;;;;;;;13.90;2.13;;;;;;;;;;4983958;28;20191;-68
2021/04/08 02:49:54;;;;;;;10.73;1.97;;;;;;;;;;4997258;28;20194;-68
2021/04/08 02:52:24;;;;;;;13.17;1.60;;;;;;;;;;4983168;28;20187;-68
2021/04/08 02:54:53;;;;;;;11.20;1.97;;;;;;;;;;5000044;28;20187;-68
2021/04/08 02:57:27;;;;;;;9.67;2.43;;;;;;;;;;4980121;28;20184;-68
2021/04/08 02:59:56;;;;;;;12.40;1.60;;;;;;;;;;4990335;28;20184;-68
2021/04/08 03:02:28;;;;;;;6.70;1.87;;;;;;;;;;4982058;28;20215;-68
2021/04/08 03:04:56;;;;;;;8.03;1.67;;;;;;;;;;4989386;28;20189;-68
2021/04/08 03:07:37;;;;;;;5.20;1.30;;;;;;;;;;4982424;28;20186;-68
2021/04/08 03:10:04;;;;;;;11.67;1.90;;;;;;;;;;5009474;28;20185;-69
2021/04/08 03:12:33;;;;;;;9.67;1.87;;;;;;;;;;4981761;28;20847;-69
2021/04/08 03:15:01;;;;;;;9.80;1.60;;;;;;;;;;4997831;28;20183;-69
2021/04/08 03:17:30;;;;;;;11.97;1.90;;;;;;;;;;4982887;28;20915;-69
2021/04/08 03:19:58;;;;;;;7.63;1.83;;;;;;;;;;4991485;28;20266;-69
2021/04/08 03:22:24;;;;;;;5.83;1.67;;;;;;;;;;4992082;28;20217;-69
2021/04/08 03:24:52;;;;;;;9.17;1.90;;;;;;;;;;4984515;28;20199;-69
2021/04/08 03:27:19;;;;;;;8.17;1.50;;;;;;;;;;4990655;28;20281;-69
2021/04/08 03:29:46;;;;;;;11.37;1.93;;;;;;;;;;4984797;28;20191;-69
2021/04/08 03:32:12;;;;;;;7.30;1.53;;;;;;;;;;4991129;28;20187;-68
2021/04/08 03:34:38;;;;;;;9.83;2.10;;;;;;;;;;4983263;28;20211;-68
2021/04/08 03:37:05;;;;;;;9.80;1.80;;;;;;;;;;4990040;28;20310;-68
2021/04/08 03:39:30;;;;;;;8.20;1.63;;;;;;;;;;4990061;28;20243;-68
2021/04/08 03:41:57;;;;;;;11.27;1.97;;;;;;;;;;4990878;28;20700;-69
2021/04/08 03:44:23;;;;;;;15.33;2.03;;;;;;;;;;4994116;28;20266;-68
2021/04/08 03:46:49;;;;;;;8.37;1.50;;;;;;;;;;4990494;28;20309;-68
2021/04/08 03:49:17;;;;;;;7.53;1.70;;;;;;;;;;4987482;28;20183;-69
2021/04/08 03:51:44;;;;;;;11.47;2.47;;;;;;;;;;4991734;28;20186;-69
2021/04/08 03:54:12;;;;;;;12.13;2.10;;;;;;;;;;4999842;28;20565;-69
2021/04/08 03:56:42;;;;;;;15.13;2.27;;;;;;;;;;4986631;28;20210;-69
2021/04/08 03:59:09;;;;;;;10.17;1.63;;;;;;;;;;5000454;28;20262;-69
2021/04/08 04:01:38;;;;;;;11.30;2.23;;;;;;;;;;4984526;28;20266;-69
2021/04/08 04:04:04;;;;;;;12.90;2.10;;;;;;;;;;4995270;28;20620;-69
2021/04/08 04:06:31;;;;;;;18.60;2.53;;;;;;;;;;4983675;28;20210;-69
2021/04/08 04:08:57;;;;;;;7.70;2.20;;;;;;;;;;4996390;28;20229;-69
2021/04/08 04:11:22;;;;;;;10.37;1.90;;;;;;;;;;4982407;28;20217;-69
2021/04/08 04:13:50;;;;;;;10.60;2.10;;;;;;;;;;4989837;28;20183;-69
2021/04/08 04:16:17;;;;;;;9.93;1.70;;;;;;;;;;4981111;28;20205;-69
2021/04/08 04:18:42;;;;;;;6.67;1.90;;;;;;;;;;4993167;28;20270;-69
2021/04/08 04:21:09;;;;;;;12.50;2.20;;;;;;;;;;4987767;28;20373;-69
2021/04/08 04:23:35;;;;;;;11.70;2.70;;;;;;;;;;4990341;28;20233;-69
2021/04/08 04:26:00;;;;;;;12.93;2.13;;;;;;;;;;4986249;28;20203;-68
2021/04/08 04:28:25;;;;;;;10.20;2.00;;;;;;;;;;4993036;28;20209;-68
2021/04/08 04:30:51;;;;;;;14.87;2.17;;;;;;;;;;4988990;28;20218;-68
2021/04/08 04:33:16;;;;;;;12.53;2.47;;;;;;;;;;4980017;28;20298;-69
2021/04/08 04:35:41;;;;;;;11.50;1.93;;;;;;;;;;4992489;28;20194;-68
2021/04/08 04:38:07;;;;;;;9.47;1.97;;;;;;;;;;4985056;28;20186;-69
2021/04/08 04:40:32;;;;;;;9.40;1.90;;;;;;;;;;4995352;28;20259;-69
2021/04/08 04:42:57;;;;;;;9.70;1.83;;;;;;;;;;4985531;28;20191;-69
2021/04/08 04:45:23;;;;;;;12.27;2.00;;;;;;;;;;4993756;28;20274;-69
2021/04/08 04:47:48;;;;;;;7.30;1.63;;;;;;;;;;4981551;28;20187;-69
2021/04/08 04:50:14;;;;;;;13.20;1.90;;;;;;;;;;4991076;28;20190;-69
2021/04/08 04:52:40;;;;;;;10.33;2.10;;;;;;;;;;4978992;28;20191;-69
2021/04/08 04:55:06;;;;;;;8.93;2.13;;;;;;;;;;4997323;28;20191;-68
2021/04/08 04:57:32;;;;;;;8.60;1.87;;;;;;;;;;4983028;28;20195;-68
2021/04/08 04:59:57;;;;;;;10.90;2.10;;;;;;;;;;4994271;28;20187;-68
2021/04/08 05:02:23;;;;;;;8.87;2.10;;;;;;;;;;4989163;28;20202;-68
2021/04/08 05:04:49;;;;;;;8.27;1.90;;;;;;;;;;4986223;28;20187;-68
2021/04/08 05:07:14;;;;;;;11.40;1.93;;;;;;;;;;4991148;28;20172;-69
2021/04/08 05:09:40;;;;;;;5.50;1.77;;;;;;;;;;4982426;28;20532;-69
2021/04/08 05:12:05;;;;;;;8.60;1.93;;;;;;;;;;4989162;28;20562;-69
2021/04/08 05:14:31;;;;;;;13.23;2.03;;;;;;;;;;4984888;28;20246;-68
2021/04/08 05:16:57;;;;;;;9.03;1.87;;;;;;;;;;4992327;28;20785;-68
2021/04/08 05:19:22;;;;;;;7.53;1.83;;;;;;;;;;4979904;28;20179;-68
2021/04/08 05:21:49;;;;;;;7.93;1.60;;;;;;;;;;4988202;28;20690;-68
2021/04/08 05:24:15;;;;;;;13.63;1.80;;;;;;;;;;4982063;28;20188;-68
2021/04/08 05:26:40;;;;;;;9.33;2.10;;;;;;;;;;4990779;28;20187;-69
2021/04/08 05:29:05;;;;;;;9.77;1.90;;;;;;;;;;4990044;28;20202;-69
2021/04/08 05:31:31;;;;;;;7.83;1.73;;;;;;;;;;4990445;28;20646;-69
2021/04/08 05:33:56;;;;;;;9.13;1.80;;;;;;;;;;4992885;28;20181;-69
2021/04/08 05:36:22;;;;;;;8.27;1.47;;;;;;;;;;4980737;28;20187;-69
2021/04/08 05:38:47;;;;;;;10.93;2.40;;;;;;;;;;4989172;28;20682;-68
2021/04/08 05:41:12;;;;;;;10.77;1.93;;;;;;;;;;4981182;28;20635;-68
2021/04/08 05:43:38;;;;;;;7.63;1.47;;;;;;;;;;4986155;28;20179;-68
2021/04/08 05:46:06;;;;;;;8.83;1.83;;;;;;;;;;4982907;28;20544;-68
2021/04/08 05:48:31;;;;;;;6.17;1.50;;;;;;;;;;4990579;28;20224;-68
2021/04/08 05:50:56;;;;;;;7.43;1.60;;;;;;;;;;4981391;28;20285;-69
2021/04/08 05:53:22;;;;;;;12.50;1.67;;;;;;;;;;4994686;28;20183;-68
2021/04/08 05:55:47;;;;;;;6.33;1.37;;;;;;;;;;4979253;28;20199;-69
2021/04/08 05:58:12;;;;;;;6.37;1.93;;;;;;;;;;4991722;28;20191;-69
2021/04/08 06:00:38;;;;;;;5.17;1.50;;;;;;;;;;4986865;28;20681;-69
2021/04/08 06:03:03;;;;;;;10.03;1.90;;;;;;;;;;4992537;28;20309;-69
2021/04/08 06:05:29;;;;;;;7.60;1.63;;;;;;;;;;4995859;28;20645;-69
2021/04/08 06:07:54;;;;;;;10.03;1.57;;;;;;;;;;4985755;28;20183;-69
2021/04/08 06:10:20;;;;;;;12.53;2.10;;;;;;;;;;4990943;28;20194;-69
2021/04/08 06:12:46;;;;;;;4.57;1.40;;;;;;;;;;4990325;28;20213;-69
2021/04/08 06:15:12;;;;;;;6.57;1.40;;;;;;;;;;4647802;28;10000843;-69
2021/04/08 06:17:38;;;;;;;8.87;2.57;;;;;;;;;;4983154;28;20192;-69
2021/04/08 06:20:05;;;;;;;11.43;2.03;;;;;;;;;;4987941;28;20257;-69
2021/04/08 06:22:31;;;;;;;5.23;1.10;;;;;;;;;;4984815;28;20575;-69
2021/04/08 06:24:56;;;;;;;4.03;1.13;;;;;;;;;;4992477;28;20180;-69
2021/04/08 06:27:21;;;;;;;6.73;1.73;;;;;;;;;;4982347;28;21893;-70
2021/04/08 06:29:47;;;;;;;8.17;2.13;;;;;;;;;;4988795;28;20195;-70
2021/04/08 06:32:12;;;;;;;8.17;1.70;;;;;;;;;;4987981;28;20188;-70
2021/04/08 06:34:37;;;;;;;9.87;2.10;;;;;;;;;;4984826;28;20666;-70
2021/04/08 06:37:03;;;;;;;5.53;1.37;;;;;;;;;;4990432;28;20194;-70
2021/04/08 06:39:29;;;;;;;5.63;1.57;;;;;;;;;;4987735;28;20608;-70
2021/04/08 06:41:55;;;;;;;4.37;0.93;;;;;;;;;;4990204;28;20203;-70
2021/04/08 06:44:23;;;;;;;10.83;2.40;;;;;;;;;;4977636;28;20191;-70
2021/04/08 06:46:57;;;;;;;7.93;1.83;;;;;;;;;;4989104;28;20754;-70
2021/04/08 06:49:25;;;;;;;8.47;1.70;;;;;;;;;;4981450;28;20209;-71
2021/04/08 06:51:57;;;;;;;9.07;1.40;;;;;;;;;;4986688;28;20695;-69
2021/04/08 06:54:23;;;;;;;8.43;1.50;;;;;;;;;;4981912;28;20723;-69
2021/04/08 06:56:49;;;;;;;7.40;1.37;;;;;;;;;;4987100;28;20198;-69
2021/04/08 06:59:16;;;;;;;6.10;1.60;;;;;;;;;;4978126;28;20182;-70
2021/04/08 07:01:43;;;;;;;6.57;1.23;;;;;;;;;;4988376;28;20195;-69
2021/04/08 07:04:10;;;;;;;6.80;1.80;;;;;;;;;;4978809;28;20333;-69
2021/04/08 07:06:35;;;;;;;9.73;1.70;;;;;;;;;;4986717;28;20270;-69
2021/04/08 07:09:01;;;;;;;6.13;1.37;;;;;;;;;;4990473;28;20750;-69
2021/04/08 07:11:27;;;;;;;7.13;1.63;;;;;;;;;;4982469;28;20614;-69
2021/04/08 07:13:52;;;;;;;7.47;1.60;;;;;;;;;;4993264;28;20218;-69
2021/04/08 07:16:18;;;;;;;8.37;1.40;;;;;;;;;;4983769;28;20265;-69
2021/04/08 07:18:43;;;;;;;10.83;1.87;;;;;;;;;;4994863;28;20195;-69
2021/04/08 07:21:09;;;;;;;6.73;1.60;;;;;;;;;;4982959;28;20207;-69
2021/04/08 07:23:34;;;;;;;13.03;1.80;;;;;;;;;;4995498;28;20191;-69
2021/04/08 07:26:09;;;;;;;7.77;1.70;;;;;;;;;;4983479;28;20211;-70
2021/04/08 07:28:35;;;;;;;9.23;1.50;;;;;;;;;;4991037;28;20197;-69
2021/04/08 07:31:22;;;;;;;6.13;1.30;;;;;;;;;;4984520;28;20273;-69
2021/04/08 07:33:48;;;;;;;10.17;1.60;;;;;;;;;;4988606;28;20199;-69
2021/04/08 07:36:32;;;;;;;8.83;1.80;;;;;;;;;;4980983;28;20651;-69
2021/04/08 07:38:59;;;;;;;6.43;2.33;;;;;;;;;;4992606;28;20211;-69
2021/04/08 07:41:30;;;;;;;5.90;1.73;;;;;;;;;;4984941;28;20230;-69
2021/04/08 07:44:04;;;;;;;5.37;1.57;;;;;;;;;;4991801;28;20321;-69
2021/04/08 07:46:40;;;;;;;9.10;1.40;;;;;;;;;;4985334;28;20199;-69
2021/04/08 07:49:27;;;;;;;6.10;1.83;;;;;;;;;;4992432;28;20183;-70
2021/04/08 07:51:53;;;;;;;7.60;1.50;;;;;;;;;;4988068;28;20195;-69
2021/04/08 07:54:19;;;;;;;5.93;1.43;;;;;;;;;;5003715;28;20194;-69
2021/04/08 07:56:46;;;;;;;6.80;1.37;;;;;;;;;;4983024;28;20647;-69
2021/04/08 07:59:18;;;;;;;6.70;1.70;;;;;;;;;;4988124;28;20210;-69
2021/04/08 08:01:47;;;;;;;3.93;1.40;;;;;;;;;;4987798;28;20509;-69
2021/04/08 08:04:19;;;;;;;5.10;1.30;;;;;;;;;;4985762;28;20219;-69
2021/04/08 08:06:45;;;;;;;8.33;1.70;;;;;;;;;;4996700;28;20187;-69
2021/04/08 08:09:10;;;;;;;7.83;1.50;;;;;;;;;;4983204;28;20195;-69
2021/04/08 08:11:40;;;;;;;9.70;1.73;;;;;;;;;;4992709;28;20262;-69
2021/04/08 08:14:06;;;;;;;7.70;2.30;;;;;;;;;;4987385;28;20186;-69
2021/04/08 08:16:31;;;;;;;5.47;1.87;;;;;;;;;;5009101;28;20611;-69
2021/04/08 08:18:58;;;;;;;7.67;1.43;;;;;;;;;;4980213;28;20234;-69
2021/04/08 08:21:37;;;;;;;3.57;1.40;;;;;;;;;;4989698;28;20200;-69
2021/04/08 08:24:11;;;;;;;3.97;1.53;;;;;;;;;;4982080;28;20397;-69
2021/04/08 08:26:45;;;;;;;7.67;2.23;;;;;;;;;;4987127;28;20195;-69
2021/04/08 08:29:10;;;;;;;5.43;1.67;;;;;;;;;;4980024;28;20326;-70
2021/04/08 08:31:45;;;;;;;10.83;1.97;;;;;;;;;;4990161;28;20266;-69
2021/04/08 08:34:27;;;;;;;11.40;2.07;;;;;;;;;;4977431;28;20201;-69
2021/04/08 08:36:55;;;;;;;6.70;1.97;;;;;;;;;;4988781;28;20187;-70
2021/04/08 08:39:32;;;;;;;7.53;1.50;;;;;;;;;;4980516;28;20232;-70
2021/04/08 08:41:59;;;;;;;9.10;1.90;;;;;;;;;;4991220;28;20230;-69
2021/04/08 08:44:26;;;;;;;9.07;1.93;;;;;;;;;;4980284;28;20577;-69
2021/04/08 08:47:12;;;;;;;11.73;2.27;;;;;;;;;;4990998;28;20206;-69
2021/04/08 08:49:46;;;;;;;5.97;2.00;;;;;;;;;;4987114;28;20543;-69
2021/04/08 08:52:23;;;;;;;8.17;1.83;;;;;;;;;;4993696;28;20186;-70
2021/04/08 08:54:50;;;;;;;6.70;1.90;;;;;;;;;;4983603;28;20202;-69
2021/04/08 08:57:16;;;;;;;6.00;1.80;;;;;;;;;;4994862;28;20645;-68
2021/04/08 08:59:44;;;;;;;5.10;1.90;;;;;;;;;;4988914;28;20667;-69
2021/04/08 09:02:10;;;;;;;10.50;2.00;;;;;;;;;;4985392;28;20211;-69
2021/04/08 09:04:36;;;;;;;7.27;1.97;;;;;;;;;;4987808;28;20230;-70
2021/04/08 09:07:05;;;;;;;5.07;1.90;;;;;;;;;;5001467;28;20559;-70
2021/04/08 09:09:32;;;;;;;6.93;2.00;;;;;;;;;;4990318;28;20278;-70
2021/04/08 09:12:02;;;;;;;6.03;2.40;;;;;;;;;;4987845;28;20191;-70
2021/04/08 09:14:28;;;;;;;6.53;2.03;;;;;;;;;;4990405;28;20194;-69
2021/04/08 09:16:54;;;;;;;5.87;1.87;;;;;;;;;;4987448;28;20195;-69
2021/04/08 09:19:32;;;;;;;6.40;2.00;;;;;;;;;;4990433;28;20190;-69
2021/04/08 09:22:03;;;;;;;6.17;1.60;;;;;;;;;;4979767;28;20396;-70
2021/04/08 09:24:34;;;;;;;5.30;2.00;;;;;;;;;;4991859;28;20218;-70
2021/04/08 09:27:00;;;;;;;4.30;1.83;;;;;;;;;;4983996;28;20282;-69
2021/04/08 09:29:41;;;;;;;4.27;1.57;;;;;;;;;;4988612;28;20191;-69
2021/04/08 09:32:31;;;;;;;7.43;1.50;;;;;;;;;;4982981;28;20214;-69
2021/04/08 09:35:08;;;;;;;5.63;1.77;;;;;;;;;;4990593;28;20709;-69
2021/04/08 09:37:49;;;;;;;10.50;1.97;;;;;;;;;;4987037;28;20239;-69
2021/04/08 09:40:24;;;;;;;9.40;1.90;;;;;;;;;;4994252;28;20233;-71
2021/04/08 09:42:56;;;;;;;5.77;2.10;;;;;;;;;;4991232;28;20218;-70
2021/04/08 09:45:22;;;;;;;3.37;1.80;;;;;;;;;;4992701;28;20985;-70
2021/04/08 09:48:16;;;;;;;7.43;1.80;;;;;;;;;;4988453;28;20195;-69
2021/04/08 09:50:50;;;;;;;5.03;1.80;;;;;;;;;;4994077;28;20244;-69
2021/04/08 09:53:18;;;;;;;4.30;1.60;;;;;;;;;;4988184;28;20201;-69
2021/04/08 09:55:56;;;;;;;4.23;1.73;;;;;;;;;;4995673;28;20191;-69
2021/04/08 09:58:25;;;;;;;4.30;1.50;;;;;;;;;;4987517;28;20227;-69
2021/04/08 10:00:52;;;;;;;6.00;1.80;;;;;;;;;;4991725;28;20218;-69
2021/04/08 10:03:28;;;;;;;3.23;1.70;;;;;;;;;;4989141;28;20689;-68
2021/04/08 10:05:54;;;;;;;3.97;1.30;;;;;;;;;;4997811;28;20225;-69
2021/04/08 10:08:23;;;;;;;4.30;1.13;;;;;;;;;;4983731;28;20210;-68
2021/04/08 10:10:50;;;;;;;4.27;1.57;;;;;;;;;;4994487;28;20219;-68
2021/04/08 10:13:33;;;;;;;7.80;1.87;;;;;;;;;;4994486;28;20669;-69
2021/04/08 10:16:11;;;;;;;4.83;1.93;;;;;;;;;;4994138;28;20225;-69
2021/04/08 10:18:38;;;;;;;3.30;1.80;;;;;;;;;;4992993;28;20193;-68
2021/04/08 10:21:06;;;;;;;6.73;1.93;;;;;;;;;;4994550;28;20221;-69
2021/04/08 10:23:33;;;;;;;4.53;1.90;;;;;;;;;;4991204;28;20219;-68
2021/04/08 10:26:00;;;;;;;3.27;1.87;;;;;;;;;;4986642;28;20262;-68
2021/04/08 10:28:35;;;;;;;3.87;2.07;;;;;;;;;;4992865;28;20183;-69
2021/04/08 10:31:32;;;;;;;3.67;1.83;;;;;;;;;;4988814;28;20650;-69
2021/04/08 10:34:07;;;;;;;5.80;2.25;;;;;;;;;;4995263;28;20264;-69
2021/04/08 10:36:35;;;;;;;6.33;2.20;;;;;;;;;;4984025;28;20278;-68
2021/04/08 10:39:14;;;;;;;7.07;2.30;;;;;;;;;;4989885;28;20657;-68
2021/04/08 10:41:55;;;;;;;3.93;1.80;;;;;;;;;;4981083;28;20211;-68
2021/04/08 10:44:32;;;;;;;3.03;1.73;;;;;;;;;;4993416;28;20714;-69
2021/04/08 10:47:10;;;;;;;3.83;2.30;;;;;;;;;;4982175;28;20297;-70
2021/04/08 10:49:38;;;;;;;3.90;1.70;;;;;;;;;;4990984;28;20171;-69
2021/04/08 10:52:07;;;;;;;6.03;2.10;;;;;;;;;;4990737;28;20191;-70
2021/04/08 10:54:34;;;;;;;3.53;1.63;;;;;;;;;;4992714;28;20196;-69
2021/04/08 10:57:01;;;;;;;4.63;2.00;;;;;;;;;;4985818;28;20632;-69
2021/04/08 10:59:27;;;;;;;3.53;1.80;;;;;;;;;;4994408;28;20188;-69
2021/04/08 11:01:54;;;;;;;4.80;1.80;;;;;;;;;;4986557;28;20200;-69
2021/04/08 11:04:22;;;;;;;3.40;1.60;;;;;;;;;;4991362;28;20200;-69
2021/04/08 11:06:49;;;;;;;4.13;2.05;;;;;;;;;;4993670;28;20566;-70
2021/04/08 11:09:25;;;;;;;4.63;2.15;;;;;;;;;;4991726;28;20270;-69
2021/04/08 11:11:51;;;;;;;3.30;2.05;;;;;;;;;;4990366;28;20192;-69
2021/04/08 11:14:22;;;;;;;4.90;2.42;;;;;;;;;;4991495;28;20189;-70
2021/04/08 11:16:48;;;;;;;3.92;2.15;;;;;;;;;;4990350;28;20537;-69
2021/04/08 11:19:14;;;;;;;7.00;2.03;;;;;;;;;;4987267;28;20655;-68
2021/04/08 11:21:39;;;;;;;5.65;2.65;;;;;;;;;;4990377;28;20232;-69
2021/04/08 11:24:05;;;;;;;5.63;2.47;;;;;;;;;;5001138;28;20199;-69
2021/04/08 11:26:31;;;;;;;4.88;2.38;;;;;;;;;;4996830;28;20258;-69
2021/04/08 11:29:00;;;;;;;6.68;2.67;;;;;;;;;;4981422;28;20619;-69
2021/04/08 11:31:26;;;;;;;7.38;3.22;;;;;;;;;;4993481;28;20191;-69
2021/04/08 11:33:59;;;;;;;8.35;3.53;;;;;;;;;;4984602;28;20187;-69
2021/04/08 11:36:26;;;;;;;4.65;3.10;;;;;;;;;;4993554;28;20527;-69
2021/04/08 11:38:52;;;;;;;9.13;3.40;;;;;;;;;;4985732;28;20210;-69
2021/04/08 11:41:18;;;;;;;6.70;3.47;;;;;;;;;;4989570;28;20238;-69
2021/04/08 11:43:50;;;;;;;5.43;3.42;;;;;;;;;;4983699;28;20191;-69
2021/04/08 11:46:43;;;;;;;7.60;3.63;;;;;;;;;;4995940;28;20179;-69
2021/04/08 11:49:19;;;;;;;5.25;3.55;;;;;;;;;;4982900;28;20348;-69
2021/04/08 11:51:45;;;;;;;6.75;3.30;;;;;;;;;;4995815;28;20191;-69
2021/04/08 11:54:20;;;;;;;7.53;3.40;;;;;;;;;;4984913;28;20554;-69
2021/04/08 11:56:45;;;;;;;5.93;3.28;;;;;;;;;;4992832;28;20277;-69
2021/04/08 11:59:11;;;;;;;9.85;4.13;;;;;;;;;;4979558;28;20593;-69
2021/04/08 12:01:40;;;;;;;7.25;3.92;;;;;;;;;;4999014;28;20218;-69
2021/04/08 12:04:12;;;;;;;8.60;3.90;;;;;;;;;;4993162;28;20208;-68
2021/04/08 12:06:59;;;;;;;5.67;4.00;;;;;;;;;;4991798;28;20202;-69
2021/04/08 12:09:44;;;;;;;7.45;4.03;;;;;;;;;;4988244;28;20179;-69
2021/04/08 12:12:10;;;;;;;6.60;4.30;;;;;;;;;;4992183;28;20191;-75
2021/04/08 12:14:55;;;;;;;9.00;4.55;;;;;;;;;;4985866;28;20228;-69
2021/04/08 12:17:22;;;;;;;6.38;4.07;;;;;;;;;;4990991;28;20210;-69
2021/04/08 12:19:47;;;;;;;9.23;4.00;;;;;;;;;;4994668;28;20179;-69
2021/04/08 12:22:14;;;;;;;6.85;4.55;;;;;;;;;;4987115;28;20813;-69
2021/04/08 12:24:40;;;;;;;8.07;4.47;;;;;;;;;;4998018;28;20187;-69
2021/04/08 12:27:21;;;;;;;6.20;4.15;;;;;;;;;;4981085;28;20667;-69
2021/04/08 12:29:46;;;;;;;8.68;4.60;;;;;;;;;;4991620;28;20187;-68
2021/04/08 12:32:12;;;;;;;7.95;4.50;;;;;;;;;;4979904;28;20194;-69
2021/04/08 12:34:37;;;;;;;6.90;4.40;;;;;;;;;;4987834;28;20248;-69
2021/04/08 12:37:02;;;;;;;6.40;4.25;;;;;;;;;;4985279;28;20253;-69
2021/04/08 12:39:29;;;;;;;6.73;4.43;;;;;;;;;;4295880;28;10021637;-69
2021/04/08 12:41:54;;;;;;;7.50;4.65;;;;;;;;;;4975837;28;20947;-69
2021/04/08 12:44:20;;;;;;;7.55;4.60;;;;;;;;;;4984767;28;20214;-69
2021/04/08 12:46:45;;;;;;;7.80;4.80;;;;;;;;;;4984159;28;20239;-69
2021/04/08 12:49:10;;;;;;;8.02;4.68;;;;;;;;;;4987665;28;20274;-70
2021/04/08 12:51:36;;;;;;;7.63;5.15;;;;;;;;;;4992532;28;20620;-69
2021/04/08 12:54:01;;;;;;;7.82;4.90;;;;;;;;;;4978625;28;20734;-70
2021/04/08 12:56:26;;;;;;;7.75;4.90;;;;;;;;;;4989708;28;20415;-70
2021/04/08 12:58:53;;;;;;;7.68;4.97;;;;;;;;;;4983135;28;20195;-70
2021/04/08 13:01:18;;;;;;;10.20;5.68;;;;;;;;;;4986175;28;20650;-70
2021/04/08 13:03:44;;;;;;;6.85;4.65;;;;;;;;;;4982918;28;20274;-70
2021/04/08 13:06:10;;;;;;;7.78;5.07;;;;;;;;;;4996259;28;20274;-69
2021/04/08 13:08:36;;;;;;;8.65;4.97;;;;;;;;;;4983168;28;20705;-69
2021/04/08 13:11:01;;;;;;;7.05;4.70;;;;;;;;;;4996643;28;20593;-69
2021/04/08 13:13:26;;;;;;;8.55;4.97;;;;;;;;;;4984047;28;20573;-68
2021/04/08 13:15:52;;;;;;;7.68;4.85;;;;;;;;;;4993342;28;20704;-69
2021/04/08 13:18:17;;;;;;;7.85;4.80;;;;;;;;;;4981625;28;20186;-69
2021/04/08 13:20:44;;;;;;;6.68;4.47;;;;;;;;;;4992566;28;20193;-72
2021/04/08 13:23:10;;;;;;;10.40;4.97;;;;;;;;;;4992891;28;20209;-68
2021/04/08 13:25:37;;;;;;;6.75;4.72;;;;;;;;;;4986652;28;20190;-70
2021/04/08 13:28:03;;;;;;;10.88;4.85;;;;;;;;;;4991241;28;20497;-70
2021/04/08 13:30:29;;;;;;;8.45;5.18;;;;;;;;;;4987253;28;20199;-70
2021/04/08 13:32:55;;;;;;;9.55;5.10;;;;;;;;;;4992437;28;20179;-70
2021/04/08 13:35:21;;;;;;;7.32;4.88;;;;;;;;;;4985843;28;20191;-69
2021/04/08 13:37:48;;;;;;;8.50;5.57;;;;;;;;;;4991105;28;20211;-69
2021/04/08 13:40:14;;;;;;;8.98;4.85;;;;;;;;;;4983105;28;20596;-69
2021/04/08 13:42:41;;;;;;;9.02;5.72;;;;;;;;;;4993411;28;20346;-70
2021/04/08 13:45:08;;;;;;;8.50;5.00;;;;;;;;;;4981828;28;20188;-70
2021/04/08 13:47:33;;;;;;;8.45;5.55;;;;;;;;;;4991429;28;20205;-70
2021/04/08 13:49:58;;;;;;;10.57;5.50;;;;;;;;;;4984802;28;20194;-70
2021/04/08 13:52:26;;;;;;;8.13;5.60;;;;;;;;;;4988626;28;20187;-70
2021/04/08 13:54:51;;;;;;;8.25;5.57;;;;;;;;;;4981702;28;20187;-71
2021/04/08 13:57:17;;;;;;;8.00;5.50;;;;;;;;;;4986350;28;20191;-70
2021/04/08 13:59:42;;;;;;;10.75;5.53;;;;;;;;;;4991262;28;20191;-70
2021/04/08 14:02:07;;;;;;;9.95;6.18;;;;;;;;;;4987401;28;20215;-70
2021/04/08 14:04:33;;;;;;;8.10;5.70;;;;;;;;;;4996598;28;20562;-70
2021/04/08 14:06:58;;;;;;;10.80;6.05;;;;;;;;;;4985357;28;20565;-70
2021/04/08 14:09:23;;;;;;;11.90;6.00;;;;;;;;;;4991923;28;20289;-70
2021/04/08 14:11:49;;;;;;;13.70;6.60;;;;;;;;;;4984698;28;20187;-70
2021/04/08 14:14:14;;;;;;;8.23;6.03;;;;;;;;;;4992339;28;20191;-70
2021/04/08 14:16:40;;;;;;;11.88;6.35;;;;;;;;;;4991829;28;20199;-69
2021/04/08 14:19:06;;;;;;;9.25;6.15;;;;;;;;;;4996913;28;20190;-70
2021/04/08 14:21:39;;;;;;;8.45;6.45;;;;;;;;;;4983646;28;20203;-70
2021/04/08 14:24:05;;;;;;;11.73;6.40;;;;;;;;;;4994211;28;20190;-69
2021/04/08 14:26:31;;;;;;;7.28;6.00;;;;;;;;;;4989461;28;20195;-69
2021/04/08 14:28:57;;;;;;;12.50;6.38;;;;;;;;;;4992440;28;20603;-70
2021/04/08 14:31:23;;;;;;;8.23;5.90;;;;;;;;;;4989477;28;20198;-69
2021/04/08 14:33:48;;;;;;;8.95;6.40;;;;;;;;;;4989525;28;20191;-70
2021/04/08 14:36:13;;;;;;;11.32;7.10;;;;;;;;;;4990753;28;20199;-70
2021/04/08 14:38:39;;;;;;;10.18;6.35;;;;;;;;;;4983061;28;20187;-69
2021/04/08 14:41:04;;;;;;;9.75;6.28;;;;;;;;;;4989595;28;20233;-69
2021/04/08 14:43:29;;;;;;;10.65;6.03;;;;;;;;;;4980268;28;20700;-69
2021/04/08 14:45:55;;;;;;;8.32;6.30;;;;;;;;;;4994571;28;20191;-69
2021/04/08 14:48:21;;;;;;;14.15;7.30;;;;;;;;;;4979500;28;20225;-69